ADDS METAR Data INFO
IDs: Format: Raw Decoded Include TAF

Data at: 0308 UTC 21 Oct 2017

KFLG 210257Z 23013G18KT 10SM BKN050 10/04 A2998 RMK AO2 SLP079 T01000044 53019
KFLG 210157Z 22017G27KT 9SM CLR 11/04 A2995 RMK AO2 PK WND 22033/0109 SLP080 T01060039
KFLG 210057Z 22020G28KT 10SM CLR 12/02 A2990 RMK AO2 PK WND 22034/0024 SLP057 T01170022
KFLG 202357Z 21026G34KT 10SM CLR 13/01 A2991 RMK AO2 PK WND 22039/2344 SLP066 T01330011 10178 20133 55000
KFLG 202257Z 22025G39KT 10SM CLR 16/M02 A2990 RMK AO2 PK WND 22039/2254 SLP064 T01561017
KFLG 202157Z 22023G31KT 10SM CLR 17/M02 A2990 RMK AO2 PK WND 22036/2103 SLP059 T01721017
KFLG 202057Z 21025G36KT 10SM CLR 17/M02 A2991 RMK AO2 PK WND 21036/2012 SLP058 T01721022 58031
KFLG 201957Z 22020G28KT 10SM CLR 17/M02 A2995 RMK AO2 PK WND 21034/1947 SLP071 T01721022
KFLG 201857Z 22022G34KT 10SM CLR 16/M02 A2999 RMK AO2 PK WND 22035/1838 SLP088 T01611017
KFLG 201757Z 22023G34KT 10SM CLR 16/M02 A3002 RMK AO2 PK WND 22034/1752 SLP096 T01561017 10156 20033 52001
KFLG 201657Z 23020G32KT 10SM CLR 14/M01 A3002 RMK AO2 PK WND 22032/1649 SLP096 T01441006
KFLG 201557Z 22018G23KT 10SM CLR 13/00 A3002 RMK AO2 SLP094 T01280000
KFLG 201457Z 21012KT 10SM CLR 11/01 A3002 RMK AO2 SLP095 T01060006 58001
KFLG 201357Z 22006KT 10SM CLR 06/M01 A3003 RMK AO2 SLP101 T00561006
KFLG 201257Z AUTO 23007KT 10SM CLR 08/00 A3003 RMK AO2 SLP090 T00780000
KFLG 201157Z AUTO 26006KT 10SM CLR 03/M01 A3002 RMK AO2 SLP094 T00331006 10050 20011 56010
KFLG 201057Z AUTO 28003KT 10SM CLR 01/M02 A3003 RMK AO2 SLP100 T00111022
KFLG 200957Z AUTO 00000KT 10SM CLR 02/M02 A3004 RMK AO2 SLP101 T00171022
KFLG 200857Z AUTO 00000KT 10SM CLR 02/M02 A3006 RMK AO2 SLP108 T00221022 56009
KFLG 200757Z AUTO 00000KT 10SM CLR 03/M02 A3007 RMK AO2 SLP108 T00331022
KFLG 200657Z AUTO 00000KT 10SM CLR 03/M03 A3008 RMK AO2 SLP111 T00331028 402060028
KFLG 200557Z AUTO 00000KT 10SM CLR 05/M02 A3010 RMK AO2 SLP117 T00501022 10183 20050 50000
KFLG 200457Z AUTO 00000KT 10SM CLR 07/M03 A3011 RMK AO2 SLP117 T00671028
KFLG 200357Z AUTO 00000KT 10SM CLR 08/M02 A3010 RMK AO2 SLP117 T00831022
KFLG 200257Z AUTO 00000KT 10SM CLR 10/M02 A3010 RMK AO2 SLP131 T01001022 53008
KFLG 200157Z 22003KT 10SM CLR 14/M02 A3009 RMK AO2 SLP127 T01391022
KFLG 200057Z 21011KT 10SM CLR 16/M03 A3007 RMK AO2 SLP116 T01611028
KFLG 192357Z 21014G20KT 10SM CLR 18/M03 A3007 RMK AO2 SLP107 T01831033 10206 20178 58010
KFLG 192257Z 23013G20KT 10SM SCT085 19/M02 A3008 RMK AO2 SLP110 T01891022
KFLG 192157Z 23012G19KT 10SM BKN085 19/M02 A3009 RMK AO2 SLP114 T01941017
KFLG 192057Z 19012KT 10SM CLR 19/M02 A3010 RMK AO2 SLP115 T01941017 57019
KFLG 191957Z 23011G20KT 10SM CLR 19/M01 A3012 RMK AO2 SLP116 T01941011
KFLG 191857Z 21016G21KT 10SM FEW070 19/M02 A3015 RMK AO2 SLP125 T01941022
KFLG 191757Z 20010G18KT 10SM SCT070 18/M02 A3017 RMK AO2 SLP129 T01831017 10189 20028 58002
KFLG 191657Z 21008KT 10SM FEW070 FEW085 18/M01 A3018 RMK AO2 SLP130 T01831011
KFLG 191557Z 21004KT 10SM FEW075 16/01 A3019 RMK AO2 SLP134 T01610011